Terminal Aerodrome Forecast
Issued by NWS

Home | Current Version | Previous Version | Text Only | Print | Product List | Glossary On
Versions: 1 2 3 4 5 6 7 8 9 10 11 12 13
000
FTUS45 KRIW 041131
TAFWRL
TAF
KWRL 041131Z 0412/0512 VRB06KT P6SM -SHRA SCT040 BKN060
     FM041800 34012G20KT P6SM VCSH SCT070 BKN100
     FM050100 34007KT P6SM FEW100
     FM050600 VRB05KT P6SM SCT200=

USA.gov is the U.S. government's official web portal to all federal, state and local government web resources and services.